Time;durP1;ratioP1;P1;durP2;ratioP2;P2;SDS_P1;SDS_P2;PMS_P1;PMS_P2;Temp;Humidity;BMP_temperature;BMP_pressure;BME280_temperature;BME280_humidity;BME280_pressure;Samples;Min_cycle;Max_cycle;Signal;HPM_P1;HPM_P2
2022/05/09 00:00:29;;;;;;;1.83;1.07;;;7.00;60.00;;;;;;5056763;28;20178;-78
2022/05/09 00:02:54;;;;;;;3.73;1.27;;;6.90;38.50;;;;;;5074948;28;20865;-80
2022/05/09 00:05:24;;;;;;;1.97;1.13;;;6.80;75.90;;;;;;5074639;28;20460;-83
2022/05/09 00:07:50;;;;;;;3.07;1.17;;;6.70;67.50;;;;;;5074170;28;20255;-78
2022/05/09 00:10:18;;;;;;;4.47;1.40;;;6.70;94.70;;;;;;5074318;28;20574;-82
2022/05/09 00:12:44;;;;;;;3.57;1.20;;;6.90;93.70;;;;;;5056569;28;20414;-80
2022/05/09 00:15:11;;;;;;;5.20;1.70;;;6.80;90.00;;;;;;5074442;28;20423;-79
2022/05/09 00:17:37;;;;;;;3.33;1.37;;;6.70;99.90;;;;;;5074425;28;20166;-79
2022/05/09 00:20:03;;;;;;;4.20;1.40;;;6.60;99.90;;;;;;5074367;28;20544;-83
2022/05/09 00:22:29;;;;;;;2.33;1.40;;;6.50;99.90;;;;;;5074247;28;20177;-79
2022/05/09 00:24:54;;;;;;;2.47;1.23;;;6.50;99.90;;;;;;5073649;28;20424;-80
2022/05/09 00:27:20;;;;;;;3.97;1.60;;;6.50;99.90;;;;;;5074162;28;20221;-80
2022/05/09 00:29:46;;;;;;;2.60;1.13;;;6.60;99.90;;;;;;5074013;28;20213;-82
2022/05/09 00:32:11;;;;;;;4.27;1.50;;;6.60;99.90;;;;;;5074093;28;20412;-81
2022/05/09 00:34:37;;;;;;;3.40;1.40;;;6.50;99.90;;;;;;5073262;28;20605;-80
2022/05/09 00:37:04;;;;;;;5.33;1.50;;;6.40;99.90;;;;;;5073990;28;20225;-81
2022/05/09 00:39:30;;;;;;;2.27;0.93;;;6.40;99.90;;;;;;5073569;28;20167;-82
2022/05/09 00:42:09;;;;;;;4.27;1.20;;;6.30;99.90;;;;;;5073873;28;20777;-79
2022/05/09 00:44:35;;;;;;;3.20;1.20;;;6.30;99.90;;;;;;5073907;28;20407;-81
2022/05/09 00:47:00;;;;;;;5.50;1.30;;;6.30;99.90;;;;;;5073793;28;20476;-80
2022/05/09 00:49:46;;;;;;;1.80;1.13;;;6.40;99.90;;;;;;5073357;28;20576;-79
2022/05/09 00:52:13;;;;;;;4.10;1.30;;;6.40;99.90;;;;;;5073705;28;20196;-82
2022/05/09 00:54:49;;;;;;;3.63;0.80;;;6.30;99.90;;;;;;5073234;28;20413;-78
2022/05/09 00:57:23;;;;;;;4.07;1.10;;;6.20;99.90;;;;;;5073666;28;20501;-82
2022/05/09 00:59:51;;;;;;;4.53;1.47;;;6.00;99.90;;;;;;5073583;28;20494;-79
2022/05/09 01:02:18;;;;;;;3.40;1.43;;;6.10;99.90;;;;;;5073457;28;20930;-82
2022/05/09 01:04:52;;;;;;;2.20;0.50;;;6.10;99.90;;;;;;5073487;28;20430;-79
2022/05/09 01:07:17;;;;;;;2.10;1.40;;;6.10;99.90;;;;;;5055421;28;20470;-79
2022/05/09 01:09:43;;;;;;;4.10;1.40;;;6.00;99.90;;;;;;5072961;28;20420;-78
2022/05/09 01:12:11;;;;;;;3.63;0.97;;;6.00;99.90;;;;;;5073255;28;20173;-80
2022/05/09 01:14:39;;;;;;;5.70;1.33;;;6.00;99.90;;;;;;5073260;28;20159;-80
2022/05/09 01:17:05;;;;;;;2.20;1.07;;;6.00;99.90;;;;;;5073401;28;20805;-81
2022/05/09 01:19:37;;;;;;;2.90;2.03;;;5.90;99.90;;;;;;5073112;28;20469;-79
2022/05/09 01:22:15;;;;;;;6.37;1.70;;;5.90;99.90;;;;;;5073217;28;20424;-79
2022/05/09 01:24:41;;;;;;;5.00;1.80;;;5.90;99.90;;;;;;5072806;28;20414;-81
2022/05/09 01:27:06;;;;;;;3.03;0.90;;;5.80;99.90;;;;;;5073268;28;20483;-79
2022/05/09 01:29:47;;;;;;;4.00;1.23;;;5.80;99.90;;;;;;5073125;28;20176;-79
2022/05/09 01:32:17;;;;;;;3.70;1.47;;;5.70;99.90;;;;;;5073117;28;20249;-80
2022/05/09 01:34:48;;;;;;;4.43;1.00;;;5.60;99.90;;;;;;5073027;28;20510;-79
2022/05/09 01:37:15;;;;;;;3.57;1.63;;;5.60;99.90;;;;;;5073081;28;20448;-79
2022/05/09 01:39:41;;;;;;;4.53;1.33;;;5.70;99.90;;;;;;5072519;28;20455;-79
2022/05/09 01:42:08;;;;;;;1.87;1.03;;;5.80;99.90;;;;;;5072978;28;20437;-78
2022/05/09 01:44:35;;;;;;;3.93;1.40;;;5.80;99.90;;;;;;5072925;28;20219;-78
2022/05/09 01:50:03;;;;;;;2.83;0.97;;;5.60;99.90;;;;;;4991410;28;20469;-80
2022/05/09 01:52:28;;;;;;;3.10;1.03;;;5.50;99.90;;;;;;5075741;28;20942;-77
2022/05/09 01:54:54;;;;;;;3.57;1.23;;;5.60;99.90;;;;;;5092917;28;20422;-79
2022/05/09 01:57:19;;;;;;;5.87;2.40;;;5.50;99.90;;;;;;5091724;28;20182;-78
2022/05/09 01:59:45;;;;;;;4.30;1.20;;;5.60;99.90;;;;;;5092741;28;20223;-79
2022/05/09 02:02:15;;;;;;;4.27;1.43;;;5.70;99.90;;;;;;5093020;28;20211;-78
2022/05/09 02:04:44;;;;;;;4.23;1.53;;;5.70;99.90;;;;;;5092847;28;20209;-78
2022/05/09 02:07:11;;;;;;;4.00;1.70;;;5.80;99.90;;;;;;5092753;28;20443;-78
2022/05/09 02:09:39;;;;;;;6.23;1.57;;;5.80;99.90;;;;;;5092587;28;20454;-80
2022/05/09 02:12:06;;;;;;;4.30;2.00;;;5.80;99.90;;;;;;5092862;28;20421;-78
2022/05/09 02:14:31;;;;;;;2.47;1.40;;;5.70;99.90;;;;;;5092762;28;20540;-79
2022/05/09 02:16:57;;;;;;;4.60;1.67;;;5.60;99.90;;;;;;5092783;28;20465;-79
2022/05/09 02:19:22;;;;;;;6.90;1.27;;;5.40;99.90;;;;;;5092672;28;20165;-78
2022/05/09 02:21:48;;;;;;;6.27;1.50;;;5.40;99.90;;;;;;5091544;28;20199;-80
2022/05/09 02:24:13;;;;;;;2.97;1.30;;;5.40;99.90;;;;;;5092361;28;20267;-78
2022/05/09 02:26:39;;;;;;;6.27;1.00;;;5.30;99.90;;;;;;5092590;28;20535;-77
2022/05/09 02:29:05;;;;;;;5.43;1.50;;;5.30;99.90;;;;;;5091460;28;20206;-79
2022/05/09 02:31:31;;;;;;;4.93;1.50;;;5.40;99.90;;;;;;5092650;28;20172;-78
2022/05/09 02:34:01;;;;;;;2.93;1.40;;;5.40;99.90;;;;;;5092759;28;20447;-78
2022/05/09 02:36:29;;;;;;;4.77;2.10;;;5.40;99.90;;;;;;5092590;28;20910;-79
2022/05/09 02:38:55;;;;;;;5.43;1.43;;;5.50;99.90;;;;;;5092357;28;20430;-78
2022/05/09 02:41:22;;;;;;;3.67;2.30;;;5.50;99.90;;;;;;5092452;28;20885;-78
2022/05/09 02:43:47;;;;;;;3.13;1.60;;;5.60;99.90;;;;;;5092494;28;20168;-78
2022/05/09 02:46:13;;;;;;;4.60;1.90;;;5.60;99.90;;;;;;5092500;28;20984;-80
2022/05/09 02:48:39;;;;;;;4.63;1.30;;;5.70;99.90;;;;;;5091260;28;20218;-78
2022/05/09 02:51:06;;;;;;;4.30;2.03;;;5.60;99.90;;;;;;5073491;28;20685;-80
2022/05/09 02:53:32;;;;;;;3.10;1.20;;;5.50;99.90;;;;;;5053845;28;20618;-82
2022/05/09 02:55:58;;;;;;;2.43;1.00;;;5.40;99.90;;;;;;5072239;28;20473;-79
2022/05/09 02:58:23;;;;;;;5.33;1.30;;;5.20;99.90;;;;;;5074735;28;20451;-79
2022/05/09 03:00:50;;;;;;;3.93;1.80;;;5.10;99.90;;;;;;5075801;28;20218;-81
2022/05/09 03:06:02;;;;;;;7.93;1.50;;;5.10;99.90;;;;;;5076068;28;20464;-82
2022/05/09 03:08:29;;;;;;;6.90;1.80;;;5.00;99.90;;;;;;5075526;28;20423;-82
2022/05/09 03:10:55;;;;;;;3.17;1.17;;;4.90;99.90;;;;;;5075694;28;20188;-80
2022/05/09 03:13:20;;;;;;;3.93;1.40;;;5.00;99.90;;;;;;5075705;28;20411;-79
2022/05/09 03:15:47;;;;;;;2.77;1.10;;;5.00;99.90;;;;;;5057578;28;20177;-81
2022/05/09 03:18:16;;;;;;;2.43;0.90;;;5.10;99.90;;;;;;5075596;28;20176;-81
2022/05/09 03:20:41;;;;;;;4.23;1.77;;;5.00;99.90;;;;;;5075335;28;20478;-81
2022/05/09 03:23:08;;;;;;;3.97;1.27;;;4.90;99.90;;;;;;5075115;28;20407;-81
2022/05/09 03:25:36;;;;;;;4.30;1.43;;;4.80;99.90;;;;;;5075515;28;20183;-81
2022/05/09 03:28:03;;;;;;;5.70;1.37;;;4.90;99.90;;;;;;5075350;28;20407;-82
2022/05/09 03:30:32;;;;;;;2.57;1.13;;;4.80;99.90;;;;;;5075233;28;20783;-82
2022/05/09 03:32:57;;;;;;;4.33;2.03;;;4.70;99.90;;;;;;5075147;28;20415;-81
2022/05/09 03:35:23;;;;;;;3.83;1.40;;;4.70;99.90;;;;;;5075284;28;20476;-82
2022/05/09 03:37:48;;;;;;;4.57;1.70;;;4.80;99.90;;;;;;5074856;28;20176;-82
2022/05/09 03:40:18;;;;;;;2.93;1.20;;;4.80;99.90;;;;;;5075099;28;20284;-81
2022/05/09 03:42:44;;;;;;;3.83;1.90;;;4.70;99.90;;;;;;5075085;28;20257;-84
2022/05/09 03:45:11;;;;;;;7.70;2.17;;;4.70;99.90;;;;;;5075077;28;20418;-82
2022/05/09 03:47:36;;;;;;;3.37;1.47;;;4.70;99.90;;;;;;5074872;28;20421;-80
2022/05/09 03:50:02;;;;;;;4.00;1.90;;;4.70;99.90;;;;;;5074808;28;20550;-83
2022/05/09 03:52:27;;;;;;;2.53;1.43;;;4.80;99.90;;;;;;5074630;28;20168;-82
2022/05/09 03:54:55;;;;;;;3.17;2.10;;;4.70;99.90;;;;;;5074895;28;20169;-83
2022/05/09 03:57:21;;;;;;;3.30;1.70;;;4.80;99.90;;;;;;5074839;28;20169;-83
2022/05/09 03:59:46;;;;;;;5.57;1.90;;;4.80;99.90;;;;;;5074615;28;20488;-81
2022/05/09 04:02:12;;;;;;;3.13;1.80;;;4.80;99.90;;;;;;5074632;28;20657;-81
2022/05/09 04:04:37;;;;;;;4.30;2.00;;;4.80;99.90;;;;;;5074743;28;20243;-79
2022/05/09 04:07:03;;;;;;;6.13;1.70;;;4.80;99.90;;;;;;5074479;28;20173;-79
2022/05/09 04:09:29;;;;;;;5.53;1.47;;;4.90;99.90;;;;;;5074496;28;20207;-78
2022/05/09 04:11:54;;;;;;;3.97;1.10;;;4.90;99.90;;;;;;5074558;28;20173;-79
2022/05/09 04:16:49;;;;;;;2.20;0.87;;;5.00;99.90;;;;;;5074403;28;20542;-79
2022/05/09 04:17:11;;;;;;;7.63;1.63;;;5.00;99.90;;;;;;5074394;28;20191;-80
2022/05/09 04:19:37;;;;;;;6.60;1.80;;;5.00;99.90;;;;;;5074278;28;20404;-79
2022/05/09 04:22:03;;;;;;;5.60;1.60;;;5.10;99.90;;;;;;5073950;28;20929;-81
2022/05/09 04:24:30;;;;;;;7.27;1.30;;;5.10;99.90;;;;;;5074140;28;20411;-79
2022/05/09 04:26:57;;;;;;;3.03;1.67;;;5.10;99.90;;;;;;5074243;28;20447;-79
2022/05/09 04:29:22;;;;;;;3.90;2.53;;;5.20;99.90;;;;;;5074139;28;20890;-82
2022/05/09 04:31:48;;;;;;;2.30;1.37;;;5.40;99.90;;;;;;5074187;28;20506;-79
2022/05/09 04:34:16;;;;;;;6.10;3.20;;;5.40;99.90;;;;;;5074039;28;20167;-80
2022/05/09 04:36:42;;;;;;;6.07;1.47;;;5.50;99.90;;;;;;5073951;28;20165;-79
2022/05/09 04:39:08;;;;;;;4.33;1.73;;;5.60;99.90;;;;;;5073608;28;21031;-79
2022/05/09 04:41:36;;;;;;;4.00;0.87;;;5.70;99.90;;;;;;5055913;28;20300;-81
2022/05/09 04:44:03;;;;;;;2.73;1.03;;;5.90;99.90;;;;;;5073887;28;20408;-80
2022/05/09 04:46:29;;;;;;;4.63;2.40;;;5.90;99.90;;;;;;5073774;28;20414;-81
2022/05/09 04:48:54;;;;;;;2.13;1.17;;;6.00;99.90;;;;;;5073482;28;20422;-78
2022/05/09 04:51:21;;;;;;;2.87;1.43;;;6.20;99.90;;;;;;5073687;28;20201;-79
2022/05/09 04:53:49;;;;;;;5.20;1.60;;;6.40;99.90;;;;;;5073230;28;20173;-79
2022/05/09 04:56:15;;;;;;;4.40;1.73;;;6.40;99.90;;;;;;5073517;28;20812;-80
2022/05/09 04:58:40;;;;;;;3.73;1.80;;;6.60;99.90;;;;;;5055716;28;20431;-79
2022/05/09 05:01:06;;;;;;;6.50;1.73;;;6.90;99.90;;;;;;5073440;28;20305;-82
2022/05/09 05:03:31;;;;;;;3.13;0.87;;;7.10;99.90;;;;;;5073336;28;20529;-82
2022/05/09 05:05:57;;;;;;;5.53;1.60;;;7.20;99.90;;;;;;5073394;28;20203;-83
2022/05/09 05:08:34;;;;;;;6.20;1.67;;;7.20;99.90;;;;;;5055092;28;20691;-83
2022/05/09 05:11:04;;;;;;;6.17;3.07;;;7.40;99.90;;;;;;5073331;28;20259;-79
2022/05/09 05:13:29;;;;;;;5.33;1.57;;;7.60;99.90;;;;;;5073260;28;20406;-82
2022/05/09 05:15:56;;;;;;;6.03;1.30;;;7.70;99.90;;;;;;5073258;28;20427;-80
2022/05/09 05:18:26;;;;;;;2.17;1.00;;;8.00;98.60;;;;;;5073300;28;20259;-79
2022/05/09 05:20:52;;;;;;;5.63;1.23;;;8.30;1.00;;;;;;5072591;28;20471;-81
2022/05/09 05:23:18;;;;;;;7.37;1.33;;;8.60;1.00;;;;;;5072653;28;20416;-82
2022/05/09 05:25:46;;;;;;;5.30;1.10;;;9.00;1.00;;;;;;5072941;28;20424;-79
2022/05/09 05:28:12;;;;;;;6.93;1.23;;;9.40;99.90;;;;;;5055279;28;20438;-81
2022/05/09 05:30:38;;;;;;;6.17;1.43;;;9.70;69.90;;;;;;5073144;28;20447;-78
2022/05/09 05:33:04;;;;;;;3.80;1.03;;;10.10;99.90;;;;;;5072193;28;20421;-79
2022/05/09 05:35:30;;;;;;;13.20;1.40;;;10.50;99.90;;;;;;5072138;28;20180;-78
2022/05/09 05:37:56;;;;;;;4.53;1.23;;;10.80;1.00;;;;;;5053347;28;20186;-81
2022/05/09 05:40:22;;;;;;;7.10;1.17;;;11.00;99.90;;;;;;5071017;28;20480;-81
2022/05/09 05:42:48;;;;;;;3.50;1.10;;;11.30;1.00;;;;;;5071149;28;20176;-79
2022/05/09 05:45:17;;;;;;;4.47;1.23;;;11.70;1.00;;;;;;5073031;28;20444;-81
2022/05/09 05:47:47;;;;;;;3.77;1.27;;;11.80;99.90;;;;;;5072745;28;20473;-82
2022/05/09 05:50:13;;;;;;;9.87;1.20;;;12.30;99.90;;;;;;5072634;28;21078;-79
2022/05/09 05:52:39;;;;;;;4.57;1.23;;;12.40;99.90;;;;;;5072400;28;20904;-79
2022/05/09 05:55:05;;;;;;;7.23;1.67;;;12.40;99.90;;;;;;5072844;28;20511;-80
2022/05/09 05:57:33;;;;;;;6.87;0.80;;;12.80;99.90;;;;;;5072627;28;20497;-79
2022/05/09 06:00:04;;;;;;;4.70;0.50;;;13.00;99.90;;;;;;5072709;28;20468;-84
2022/05/09 06:02:30;;;;;;;4.83;0.77;;;13.10;99.90;;;;;;5072698;28;20443;-79
2022/05/09 06:04:56;;;;;;;5.60;0.83;;;13.30;99.90;;;;;;5072647;28;20423;-82
2022/05/09 06:07:22;;;;;;;4.73;1.30;;;13.90;99.90;;;;;;5043770;28;20440;-80
2022/05/09 06:09:49;;;;;;;18.57;1.70;;;13.50;99.90;;;;;;5072718;28;20181;-81
2022/05/09 06:12:16;;;;;;;5.83;1.03;;;13.80;99.90;;;;;;5072577;28;20834;-82
2022/05/09 06:14:42;;;;;;;5.43;1.30;;;14.10;97.50;;;;;;5072574;28;20424;-78
2022/05/09 06:17:09;;;;;;;6.60;2.20;;;15.00;78.50;;;;;;5062499;28;20434;-82
2022/05/09 06:19:35;;;;;;;4.50;1.40;;;15.70;37.40;;;;;;5052401;28;20628;-80
2022/05/09 06:22:01;;;;;;;5.50;1.83;;;16.30;1.00;;;;;;5071581;28;20442;-81
2022/05/09 06:24:27;;;;;;;9.03;1.63;;;17.20;1.00;;;;;;5072501;28;20242;-79
2022/05/09 06:26:53;;;;;;;4.63;0.90;;;17.90;1.00;;;;;;5069672;28;20920;-79
2022/05/09 06:29:18;;;;;;;6.53;0.50;;;17.90;1.00;;;;;;5069001;28;20634;-78
2022/05/09 06:31:44;;;;;;;4.77;1.37;;;19.00;1.00;;;;;;5060704;28;20235;-81
2022/05/09 06:34:12;;;;;;;4.67;1.53;;;19.60;1.00;;;;;;5066013;28;20208;-80
2022/05/09 06:36:38;;;;;;;6.50;0.90;;;19.50;1.00;;;;;;5057312;28;20432;-78
2022/05/09 06:39:05;;;;;;;5.60;1.33;;;20.00;1.00;;;;;;5056329;28;20830;-77
2022/05/09 06:41:31;;;;;;;5.30;0.87;;;20.10;1.00;;;;;;5056056;28;20472;-76
2022/05/09 06:43:57;;;;;;;5.67;1.03;;;20.20;1.00;;;;;;5068123;28;20452;-77
2022/05/09 06:46:23;;;;;;;3.47;1.17;;;19.50;1.00;;;;;;5065601;28;20427;-79
2022/05/09 06:48:49;;;;;;;4.47;1.10;;;19.80;1.00;;;;;;5040407;28;20172;-80
2022/05/09 06:51:14;;;;;;;4.70;1.17;;;18.90;1.00;;;;;;5062232;28;20200;-80
2022/05/09 06:53:40;;;;;;;4.27;1.53;;;19.50;1.00;;;;;;5066444;28;20197;-77
2022/05/09 06:56:06;;;;;;;5.73;1.10;;;20.00;1.00;;;;;;5060252;28;20258;-77
2022/05/09 06:58:31;;;;;;;4.27;1.40;;;20.70;1.00;;;;;;5069482;28;20276;-77
2022/05/09 07:00:57;;;;;;;4.43;0.60;;;21.30;1.00;;;;;;5066858;28;20220;-77
2022/05/09 07:03:23;;;;;;;7.60;1.50;;;21.50;1.00;;;;;;5066730;28;20193;-77
2022/05/09 07:05:51;;;;;;;9.30;1.27;;;20.20;1.00;;;;;;5056359;28;20182;-76
2022/05/09 07:08:18;;;;;;;5.93;1.30;;;19.30;1.00;;;;;;5055358;28;20419;-80
2022/05/09 07:10:44;;;;;;;6.50;1.53;;;20.00;1.00;;;;;;5055659;28;20432;-77
2022/05/09 07:13:10;;;;;;;8.07;3.13;;;21.10;1.00;;;;;;5055640;28;20401;-77
2022/05/09 07:15:38;;;;;;;5.57;1.57;;;21.80;1.00;;;;;;5055598;28;20207;-82
2022/05/09 07:18:05;;;;;;;5.00;1.67;;;21.50;1.00;;;;;;5055879;28;20199;-77
2022/05/09 07:20:33;;;;;;;4.63;1.00;;;21.60;1.00;;;;;;5055431;28;20458;-78
2022/05/09 07:23:08;;;;;;;5.10;1.10;;;21.90;1.00;;;;;;5055084;28;20432;-77
2022/05/09 07:25:34;;;;;;;4.47;1.47;;;22.00;1.00;;;;;;5055348;28;20947;-77
2022/05/09 07:28:00;;;;;;;9.63;1.93;;;21.70;1.00;;;;;;5055238;28;20424;-78
2022/05/09 07:30:25;;;;;;;7.67;2.20;;;22.00;1.00;;;;;;5055265;28;20260;-79
2022/05/09 07:32:52;;;;;;;9.30;2.13;;;22.80;1.00;;;;;;5055051;28;20177;-79
2022/05/09 07:35:18;;;;;;;4.90;1.57;;;23.00;1.00;;;;;;5055232;28;20201;-79
2022/05/09 07:37:46;;;;;;;8.13;1.77;;;22.60;1.00;;;;;;5054646;28;20411;-78
2022/05/09 07:40:13;;;;;;;5.77;1.27;;;21.70;1.00;;;;;;5055633;28;20471;-77
2022/05/09 07:42:40;;;;;;;7.70;1.60;;;22.20;1.00;;;;;;5066300;28;20443;-78
2022/05/09 07:45:07;;;;;;;6.70;1.30;;;22.00;1.00;;;;;;5072019;28;20422;-77
2022/05/09 07:47:33;;;;;;;4.87;1.40;;;22.10;1.00;;;;;;5074797;28;20434;-77
2022/05/09 07:49:58;;;;;;;4.30;1.37;;;22.40;1.00;;;;;;5065071;28;20534;-77
2022/05/09 07:52:24;;;;;;;6.43;1.77;;;22.80;1.00;;;;;;5054413;28;20170;-77
2022/05/09 07:54:49;;;;;;;6.17;1.70;;;22.50;1.00;;;;;;5054816;28;20177;-77
2022/05/09 07:57:16;;;;;;;3.47;1.27;;;22.70;1.00;;;;;;5054685;28;20170;-78
2022/05/09 07:59:42;;;;;;;5.97;1.23;;;22.50;1.00;;;;;;5054597;28;20173;-78
2022/05/09 08:02:08;;;;;;;6.30;1.67;;;23.10;1.00;;;;;;5054672;28;20781;-77
2022/05/09 08:04:34;;;;;;;3.57;1.50;;;22.50;1.00;;;;;;5054499;28;20404;-77
2022/05/09 08:07:00;;;;;;;8.37;1.33;;;23.10;1.00;;;;;;5054158;28;20928;-78
2022/05/09 08:09:26;;;;;;;4.33;1.47;;;23.20;1.00;;;;;;5054453;28;20462;-78
2022/05/09 08:11:52;;;;;;;5.10;2.03;;;22.70;1.00;;;;;;5054444;28;20420;-77
2022/05/09 08:14:17;;;;;;;4.40;1.13;;;23.50;1.00;;;;;;5054486;28;20181;-79
2022/05/09 08:16:43;;;;;;;3.97;0.90;;;23.70;1.00;;;;;;5054329;28;20965;-79
2022/05/09 08:19:11;;;;;;;2.60;0.80;;;23.80;1.00;;;;;;5054332;28;20505;-78
2022/05/09 08:21:38;;;;;;;3.30;0.73;;;23.60;1.00;;;;;;5053900;28;20605;-77
2022/05/09 08:24:05;;;;;;;4.97;1.20;;;23.40;1.00;;;;;;5036527;28;20459;-78
2022/05/09 08:26:34;;;;;;;3.80;0.97;;;23.90;1.00;;;;;;5054223;28;20416;-78
2022/05/09 08:29:00;;;;;;;5.20;1.57;;;24.10;1.00;;;;;;5054216;28;20438;-76
2022/05/09 08:31:26;;;;;;;3.97;0.67;;;24.00;1.00;;;;;;5054020;28;20768;-78
2022/05/09 08:33:53;;;;;;;7.30;1.80;;;24.40;1.00;;;;;;5053999;28;20938;-77
2022/05/09 08:39:08;;;;;;;5.53;1.40;;;24.20;1.00;;;;;;5054206;28;20407;-78
2022/05/09 08:42:01;;;;;;;9.30;1.27;;;24.00;1.00;;;;;;5053765;28;20468;-78
2022/05/09 08:44:58;;;;;;;10.23;1.30;;;24.20;1.00;;;;;;5045934;28;20919;-78
2022/05/09 08:47:30;;;;;;;7.20;1.20;;;24.50;1.00;;;;;;5053730;28;20450;-78
2022/05/09 08:50:16;;;;;;;5.90;1.87;;;24.80;1.00;;;;;;5053518;28;20467;-77
2022/05/09 08:52:55;;;;;;;3.53;1.27;;;24.50;1.00;;;;;;5053307;28;20912;-77
2022/05/09 08:55:35;;;;;;;3.20;1.10;;;24.80;1.00;;;;;;5052940;28;20965;-76
2022/05/09 08:58:37;;;;;;;5.30;1.33;;;25.40;1.00;;;;;;5053711;28;20435;-77
2022/05/09 09:01:04;;;;;;;5.27;1.90;;;25.10;1.00;;;;;;5053646;28;20463;-77
2022/05/09 09:03:33;;;;;;;3.60;1.47;;;25.30;1.00;;;;;;5053465;28;20419;-76
2022/05/09 09:06:16;;;;;;;5.97;2.50;;;24.50;1.00;;;;;;5053390;28;20412;-77
2022/05/09 09:09:08;;;;;;;4.20;1.23;;;24.70;1.00;;;;;;5053302;28;20479;-77
2022/05/09 09:12:06;;;;;;;5.30;1.67;;;24.40;1.00;;;;;;5053416;28;20405;-78
2022/05/09 09:14:50;;;;;;;4.43;1.43;;;24.40;1.00;;;;;;5035435;28;20454;-77
2022/05/09 09:17:34;;;;;;;5.70;1.50;;;24.80;1.00;;;;;;5053307;28;20901;-76
2022/05/09 09:20:20;;;;;;;4.80;1.70;;;24.70;1.00;;;;;;5053096;28;20451;-77
2022/05/09 09:23:08;;;;;;;4.30;1.60;;;24.20;1.00;;;;;;5052709;28;20916;-77
2022/05/09 09:25:58;;;;;;;8.20;2.40;;;24.20;1.00;;;;;;5053079;28;20760;-78
2022/05/09 09:28:36;;;;;;;5.03;1.70;;;25.10;1.00;;;;;;5053066;28;20431;-77
2022/05/09 09:31:09;;;;;;;5.63;1.33;;;25.00;1.00;;;;;;5035224;28;20765;-77
2022/05/09 09:33:39;;;;;;;4.30;1.17;;;25.20;1.00;;;;;;5053072;28;20920;-77
2022/05/09 09:36:13;;;;;;;5.83;1.80;;;24.60;1.00;;;;;;5035132;28;20420;-77
2022/05/09 09:39:07;;;;;;;4.10;1.37;;;25.30;1.00;;;;;;5052957;28;20427;-77
2022/05/09 09:41:35;;;;;;;5.57;1.83;;;25.70;1.00;;;;;;5037583;28;20502;-81
2022/05/09 09:44:17;;;;;;;4.80;1.33;;;25.30;1.00;;;;;;5035677;28;20788;-81
2022/05/09 09:47:05;;;;;;;4.83;1.50;;;26.00;1.00;;;;;;5033832;28;20416;-81
2022/05/09 09:49:34;;;;;;;4.13;1.40;;;24.90;1.00;;;;;;5050665;28;20976;-80
2022/05/09 09:52:00;;;;;;;5.73;2.20;;;24.80;1.00;;;;;;5051360;28;20443;-79
2022/05/09 09:54:35;;;;;;;3.77;1.43;;;24.80;1.00;;;;;;5051674;28;20412;-80
2022/05/09 09:57:21;;;;;;;2.73;1.13;;;25.10;1.00;;;;;;5051859;28;20411;-81
2022/05/09 09:59:48;;;;;;;8.33;1.93;;;25.50;1.00;;;;;;5034223;28;20428;-82
2022/05/09 10:02:24;;;;;;;4.10;1.50;;;24.10;1.00;;;;;;5056278;28;20767;-81
2022/05/09 10:04:49;;;;;;;3.87;1.80;;;24.80;1.00;;;;;;5056040;28;20412;-82
2022/05/09 10:07:28;;;;;;;12.13;1.77;;;25.40;1.00;;;;;;5054135;28;20503;-80
2022/05/09 10:10:11;;;;;;;4.53;1.17;;;25.40;1.00;;;;;;5055971;28;20165;-81
2022/05/09 10:12:39;;;;;;;4.40;1.30;;;25.10;1.00;;;;;;5056008;28;20462;-80
2022/05/09 10:15:23;;;;;;;3.97;1.10;;;25.20;1.00;;;;;;5037600;28;20954;-82
2022/05/09 10:17:49;;;;;;;9.80;1.80;;;25.90;1.00;;;;;;5055531;28;20479;-82
2022/05/09 10:20:37;;;;;;;6.97;2.43;;;25.90;1.00;;;;;;5055313;28;20491;-80
2022/05/09 10:26:24;;;;;;;5.83;2.20;;;26.60;1.00;;;;;;5055522;28;20453;-82
2022/05/09 10:29:05;;;;;;;6.73;1.57;;;27.10;1.00;;;;;;5055148;28;20420;-81
2022/05/09 10:31:43;;;;;;;4.50;1.60;;;26.90;1.00;;;;;;5055276;28;20467;-82
2022/05/09 10:34:26;;;;;;;3.20;1.33;;;26.50;1.00;;;;;;5055545;28;20414;-82
2022/05/09 10:37:26;;;;;;;4.23;1.90;;;26.50;1.00;;;;;;5036855;28;20426;-82
2022/05/09 10:39:59;;;;;;;6.13;1.47;;;26.60;1.00;;;;;;5041836;28;20416;-81
2022/05/09 10:42:34;;;;;;;5.10;2.20;;;27.00;1.00;;;;;;5037625;28;20420;-78
2022/05/09 10:45:17;;;;;;;6.10;1.80;;;26.20;1.00;;;;;;5056206;28;20505;-79
2022/05/09 10:48:24;;;;;;;2.83;1.17;;;26.60;1.00;;;;;;5058076;28;20427;-79
2022/05/09 10:51:19;;;;;;;3.43;1.20;;;27.00;1.00;;;;;;5075156;28;20522;-79
2022/05/09 10:54:10;;;;;;;4.00;1.60;;;27.20;1.00;;;;;;5074392;28;20419;-79
2022/05/09 10:56:44;;;;;;;8.17;1.20;;;27.30;1.00;;;;;;5057145;28;20820;-79
2022/05/09 10:59:18;;;;;;;7.37;1.57;;;26.00;1.00;;;;;;5065135;28;20423;-79
2022/05/09 11:01:50;;;;;;;5.40;1.40;;;26.50;1.00;;;;;;5055980;28;20506;-79
2022/05/09 11:04:16;;;;;;;4.23;1.20;;;27.30;1.00;;;;;;5055785;28;20419;-78
2022/05/09 11:07:07;;;;;;;4.00;1.23;;;26.40;1.00;;;;;;5055502;28;20943;-79
2022/05/09 11:10:12;;;;;;;3.63;1.20;;;26.30;1.00;;;;;;5055749;28;20769;-79
2022/05/09 11:13:01;;;;;;;9.00;1.47;;;26.70;1.00;;;;;;5050332;28;20478;-80
2022/05/09 11:15:46;;;;;;;5.70;1.53;;;25.90;1.00;;;;;;5056277;28;20420;-79
2022/05/09 11:18:35;;;;;;;4.80;1.37;;;26.40;1.00;;;;;;5036971;28;20466;-79
2022/05/09 11:21:27;;;;;;;3.90;1.13;;;24.90;1.00;;;;;;5055145;28;20415;-78
2022/05/09 11:24:26;;;;;;;4.03;1.30;;;25.90;1.00;;;;;;5055453;28;20423;-79
2022/05/09 11:27:29;;;;;;;2.73;0.97;;;26.50;1.00;;;;;;5055346;28;20846;-79
2022/05/09 11:30:16;;;;;;;2.43;0.67;;;26.20;1.00;;;;;;5055001;28;20451;-79
2022/05/09 11:32:43;;;;;;;5.33;1.30;;;26.50;1.00;;;;;;5055243;28;20420;-78
2022/05/09 11:35:35;;;;;;;5.13;1.27;;;27.40;1.00;;;;;;5036911;28;20510;-78
2022/05/09 11:38:27;;;;;;;3.50;1.00;;;26.40;1.00;;;;;;5037287;28;20432;-80
2022/05/09 11:41:17;;;;;;;4.23;1.27;;;26.00;1.00;;;;;;5055018;28;20424;-78
2022/05/09 11:43:57;;;;;;;3.13;1.00;;;25.90;1.00;;;;;;5054838;28;20775;-78
2022/05/09 11:46:40;;;;;;;4.53;1.07;;;26.50;1.00;;;;;;5054893;28;20412;-78
2022/05/09 11:49:48;;;;;;;3.27;1.03;;;26.30;1.00;;;;;;5054667;28;20841;-79
2022/05/09 11:52:37;;;;;;;2.90;0.77;;;26.60;1.00;;;;;;5056813;28;20786;-79
2022/05/09 11:55:17;;;;;;;4.43;1.40;;;26.60;1.00;;;;;;5054822;28;20404;-79
2022/05/09 11:57:46;;;;;;;4.87;0.83;;;26.60;1.00;;;;;;5054842;28;20397;-79
2022/05/09 12:00:35;;;;;;;6.13;2.30;;;26.70;1.00;;;;;;5054646;28;20408;-79
2022/05/09 12:03:06;;;;;;;3.57;0.90;;;26.80;1.00;;;;;;5065576;28;20468;-79
2022/05/09 12:05:31;;;;;;;2.90;1.20;;;27.20;1.00;;;;;;5073354;28;20411;-78
2022/05/09 12:08:18;;;;;;;3.63;1.03;;;26.60;1.00;;;;;;5073902;28;20486;-78
2022/05/09 12:10:49;;;;;;;4.00;1.60;;;26.60;1.00;;;;;;5074208;28;20247;-78
2022/05/09 12:13:41;;;;;;;5.30;1.60;;;27.10;1.00;;;;;;5074138;28;20418;-78
2022/05/09 12:16:07;;;;;;;2.20;1.00;;;26.80;1.00;;;;;;5073997;28;20412;-79
2022/05/09 12:18:59;;;;;;;3.13;0.90;;;26.50;1.00;;;;;;5074180;28;20495;-79
2022/05/09 12:21:32;;;;;;;7.00;1.23;;;26.30;1.00;;;;;;5074168;28;20217;-77
2022/05/09 12:24:19;;;;;;;4.87;1.83;;;25.80;1.00;;;;;;5074292;28;20868;-78
2022/05/09 12:26:50;;;;;;;3.50;1.30;;;26.00;1.00;;;;;;5056413;28;20441;-79
2022/05/09 12:29:19;;;;;;;4.10;1.10;;;26.80;1.00;;;;;;5073862;28;20542;-77
2022/05/09 12:31:47;;;;;;;2.90;1.20;;;26.60;1.00;;;;;;5055793;28;21070;-78
2022/05/09 12:34:15;;;;;;;2.33;0.90;;;25.70;1.00;;;;;;5074150;28;20452;-79
2022/05/09 12:36:44;;;;;;;6.30;1.67;;;26.70;1.00;;;;;;5073633;28;20418;-79
2022/05/09 12:39:25;;;;;;;3.80;1.40;;;27.10;1.00;;;;;;5074138;28;20423;-79
2022/05/09 12:42:02;;;;;;;4.33;1.37;;;27.00;1.00;;;;;;5074713;28;20460;-79
2022/05/09 12:44:48;;;;;;;4.20;1.50;;;27.10;1.00;;;;;;5073781;28;20945;-79
2022/05/09 12:47:30;;;;;;;4.33;1.10;;;26.70;1.00;;;;;;5073832;28;20419;-79
2022/05/09 12:50:03;;;;;;;5.93;1.33;;;26.50;1.00;;;;;;5073412;28;20471;-79
2022/05/09 12:52:32;;;;;;;3.43;1.33;;;25.80;1.00;;;;;;5073390;28;20447;-79
2022/05/09 12:57:47;;;;;;;4.10;1.27;;;26.60;1.00;;;;;;5073633;28;20907;-78
2022/05/09 13:00:17;;;;;;;2.30;1.27;;;25.90;1.00;;;;;;5073482;28;20419;-79
2022/05/09 13:02:44;;;;;;;2.63;1.00;;;26.30;1.00;;;;;;5073462;28;20180;-78
2022/05/09 13:05:12;;;;;;;5.63;1.53;;;25.50;1.00;;;;;;5073452;28;20423;-78
2022/05/09 13:07:58;;;;;;;3.80;1.30;;;26.10;1.00;;;;;;5073060;28;20502;-80
2022/05/09 13:10:25;;;;;;;3.90;1.37;;;25.90;1.00;;;;;;5073307;28;20490;-79
2022/05/09 13:12:58;;;;;;;3.00;0.90;;;25.90;1.00;;;;;;5073304;28;20415;-79
2022/05/09 13:15:24;;;;;;;3.50;1.50;;;25.70;1.00;;;;;;5073244;28;20426;-79
2022/05/09 13:18:03;;;;;;;5.50;1.47;;;26.00;1.00;;;;;;5073219;28;20464;-79
2022/05/09 13:20:34;;;;;;;5.10;2.07;;;25.90;1.00;;;;;;5073104;28;20415;-78
2022/05/09 13:23:06;;;;;;;3.37;0.80;;;25.30;1.00;;;;;;5073152;28;20423;-78
2022/05/09 13:26:00;;;;;;;3.00;1.33;;;25.40;1.00;;;;;;5047454;28;20417;-82
2022/05/09 13:28:30;;;;;;;4.00;0.77;;;25.70;1.00;;;;;;5033939;28;20483;-82
2022/05/09 13:30:57;;;;;;;3.70;1.17;;;24.80;1.00;;;;;;5051907;28;20471;-82